LFYR 181530Z AUTO 27007KT 230V320 CAVOK 28/12 Q1014

ElémentsDécodage
LFYR Station météo située sur l'aérodrome de ROMORANTIN Pruniers
181530Z émis le 18 du mois à 15h30 UTC
AUTO Bulletin édité par un automate
27007KT vent du 270°, 07 noeuds
230V320 vent de direction variable entre 230° et 320°
CAVOK Ceiling And Visibility OK
- Visibilité de 10 Km ou plus
- Pas de nuage au-dessous de 1500m ou au-dessous de l'altitude minimale du secteur la plus élevée (si>1500m) et absence de CB
- pas de temps présent significatif
28/12 température 28°C, point de rosée 12°C
 soit une humidité relative de 37%
Q1014 la pression au niveau de la mer (QNH) est de 1014 hPa